createdAt,value
2018-07-24T00:04:50.805Z,101044.36
2018-07-24T00:09:48.481Z,101044.80
2018-07-24T00:21:48.020Z,101051.81
2018-07-24T00:26:47.313Z,101052.41
2018-07-24T00:31:43.971Z,101055.73
2018-07-24T00:36:40.149Z,101050.48
2018-07-24T00:47:23.330Z,101040.78
2018-07-24T00:52:23.045Z,101036.95
2018-07-24T00:57:20.950Z,101038.59
2018-07-24T01:07:56.712Z,101031.70
2018-07-24T01:12:56.156Z,101032.16
2018-07-24T01:29:47.741Z,101019.67
2018-07-24T01:34:58.855Z,101025.03
2018-07-24T01:39:56.023Z,101021.74
2018-07-24T01:45:39.166Z,101023.55
2018-07-24T01:51:08.923Z,101017.20
2018-07-24T01:56:05.700Z,101022.78
2018-07-24T02:01:04.045Z,101022.59
2018-07-24T02:06:05.448Z,101016.80
2018-07-24T02:17:09.034Z,101013.97
2018-07-24T02:22:07.431Z,101014.41
2018-07-24T02:27:39.717Z,101009.81
2018-07-24T02:32:38.032Z,101008.02
2018-07-24T02:38:01.321Z,101008.61
2018-07-24T02:43:00.115Z,101007.48
2018-07-24T02:48:54.623Z,101008.78
2018-07-24T02:54:13.901Z,101013.41
2018-07-24T03:11:30.528Z,101011.03
2018-07-24T03:22:31.083Z,101010.88
2018-07-24T03:27:28.129Z,101016.54
2018-07-24T03:32:25.643Z,101009.11
2018-07-24T03:38:28.681Z,101008.91
2018-07-24T03:43:30.562Z,101008.72
2018-07-24T04:06:55.736Z,101014.34
2018-07-24T04:12:52.281Z,101019.58
2018-07-24T04:18:03.173Z,101022.20
2018-07-24T04:23:33.213Z,101020.37
2018-07-24T04:29:16.787Z,101015.68
2018-07-24T04:34:14.645Z,101014.95
2018-07-24T04:39:12.837Z,101010.74
2018-07-24T04:44:09.459Z,101011.20
2018-07-24T04:55:39.874Z,101009.33
2018-07-24T05:01:00.806Z,101011.72
2018-07-24T05:06:10.888Z,101009.03
2018-07-24T05:11:09.459Z,101015.86
2018-07-24T05:16:06.881Z,101010.52
2018-07-24T05:34:07.334Z,101015.55
2018-07-24T05:44:57.366Z,101015.48
2018-07-24T05:56:20.593Z,101016.78
2018-07-24T06:01:21.388Z,101015.00
2018-07-24T06:06:16.165Z,101019.80
2018-07-24T06:11:11.054Z,101014.38
2018-07-24T06:16:05.802Z,101010.88
2018-07-24T06:21:00.954Z,101011.61
2018-07-24T06:25:55.561Z,101013.41
2018-07-24T06:30:50.308Z,101011.38
2018-07-24T06:35:45.410Z,101016.76
2018-07-24T06:40:40.283Z,101012.91
2018-07-24T06:45:35.274Z,101015.38
2018-07-24T06:50:30.024Z,101016.07
2018-07-24T06:55:24.908Z,101020.81
2018-07-24T07:00:19.693Z,101016.67
2018-07-24T07:05:14.528Z,101014.53
2018-07-24T07:10:10.115Z,101014.15
2018-07-24T07:15:05.972Z,101010.02
2018-07-24T07:20:00.789Z,101004.25
2018-07-24T07:24:55.752Z,101008.40
2018-07-24T07:29:53.397Z,101000.33
2018-07-24T07:34:48.228Z,101005.33
2018-07-24T07:39:43.140Z,100997.91
2018-07-24T07:44:38.052Z,100994.77
2018-07-24T07:49:32.746Z,100990.80
2018-07-24T07:54:27.484Z,100987.84
2018-07-24T07:59:22.339Z,100981.31
2018-07-24T08:04:18.883Z,100989.99
2018-07-24T08:09:13.607Z,100979.31
2018-07-24T08:14:09.287Z,100971.53
2018-07-24T08:19:04.873Z,100973.63
2018-07-24T08:23:59.361Z,100970.11
2018-07-24T08:28:54.150Z,100964.30
2018-07-24T08:33:48.925Z,100966.47
2018-07-24T08:38:44.687Z,100959.88
2018-07-24T08:43:39.934Z,100962.91
2018-07-24T08:48:35.166Z,100958.96
2018-07-24T08:53:30.366Z,100950.97
2018-07-24T08:58:24.819Z,100955.52
2018-07-24T09:03:19.538Z,100956.30
2018-07-24T09:08:14.259Z,100946.72
2018-07-24T09:13:08.986Z,100956.59
2018-07-24T09:18:03.838Z,100950.70
2018-07-24T09:22:58.832Z,100949.95
2018-07-24T09:27:54.198Z,100954.88
2018-07-24T09:32:49.114Z,100946.03
2018-07-24T09:37:43.821Z,100944.22
2018-07-24T09:42:38.667Z,100939.73
2018-07-24T09:47:33.105Z,100935.86
2018-07-24T09:52:27.954Z,100932.39
2018-07-24T09:57:22.647Z,100914.74
2018-07-24T10:02:17.556Z,100904.51
2018-07-24T10:07:12.288Z,100890.55
2018-07-24T10:12:07.397Z,100888.31
2018-07-24T10:17:02.317Z,100881.77
2018-07-24T10:21:57.046Z,100869.19
2018-07-24T10:26:51.815Z,100862.67
2018-07-24T10:31:46.531Z,100858.12
2018-07-24T10:36:41.318Z,100856.88
2018-07-24T10:41:36.037Z,100851.27
2018-07-24T10:46:30.879Z,100849.81
2018-07-24T10:51:25.779Z,100845.62
2018-07-24T10:56:20.706Z,100857.69
2018-07-24T11:01:15.443Z,100839.58
2018-07-24T11:06:10.208Z,100843.20
2018-07-24T11:11:05.366Z,100834.38
2018-07-24T11:16:00.270Z,100840.36
2018-07-24T11:20:54.970Z,100830.80
2018-07-24T11:25:49.728Z,100822.37
2018-07-24T11:30:44.455Z,100818.83
2018-07-24T11:35:39.270Z,100814.36
2018-07-24T11:40:34.195Z,100817.20
2018-07-24T11:45:28.938Z,100820.11
2018-07-24T11:50:23.662Z,100815.76
2018-07-24T11:55:18.674Z,100808.39
2018-07-24T12:00:13.392Z,100801.50
2018-07-24T12:05:08.321Z,100799.22
2018-07-24T12:10:03.057Z,100799.01
2018-07-24T12:14:57.897Z,100798.48
2018-07-24T12:19:52.837Z,100784.52
2018-07-24T12:24:47.984Z,100780.83
2018-07-24T12:29:42.758Z,100779.75
2018-07-24T12:34:37.566Z,100782.39
2018-07-24T12:39:32.460Z,100772.73
2018-07-24T12:44:27.291Z,100772.11
2018-07-24T12:49:22.298Z,100767.09
2018-07-24T12:54:17.079Z,100769.06
2018-07-24T12:59:11.902Z,100758.37
2018-07-24T13:04:06.392Z,100755.06
2018-07-24T13:09:01.272Z,100752.16
2018-07-24T13:13:56.517Z,100746.99
2018-07-24T13:18:51.228Z,100740.48
2018-07-24T13:23:45.965Z,100741.80
2018-07-24T13:28:40.524Z,100733.95
2018-07-24T13:33:35.611Z,100729.92
2018-07-24T13:38:31.231Z,100729.09
2018-07-24T13:43:26.453Z,100724.73
2018-07-24T13:48:21.179Z,100721.77
2018-07-24T13:53:17.418Z,100721.31
2018-07-24T13:58:12.941Z,100718.22
2018-07-24T14:03:07.504Z,100719.47
2018-07-24T14:08:02.993Z,100717.15
2018-07-24T14:12:58.064Z,100721.71
2018-07-24T14:17:56.836Z,100705.48
2018-07-24T14:22:51.797Z,100698.92
2018-07-24T14:27:46.982Z,100691.03
2018-07-24T14:32:42.028Z,100684.37
2018-07-24T14:37:36.835Z,100683.11
2018-07-24T14:42:31.789Z,100684.57
2018-07-24T14:47:26.906Z,100692.16
2018-07-24T14:52:21.905Z,100679.48
2018-07-24T14:57:17.006Z,100680.77
2018-07-24T15:02:12.409Z,100680.28
2018-07-24T15:07:08.476Z,100675.35
2018-07-24T15:12:03.679Z,100677.36
2018-07-24T15:16:58.912Z,100665.11
2018-07-24T15:21:54.154Z,100671.59
2018-07-24T15:26:49.252Z,100669.14
2018-07-24T15:31:44.179Z,100659.61
2018-07-24T15:36:40.095Z,100659.07
2018-07-24T15:41:35.142Z,100649.41
2018-07-24T15:46:32.241Z,100649.50
2018-07-24T15:51:27.424Z,100659.43
2018-07-24T15:56:22.501Z,100650.15
2018-07-24T16:01:17.559Z,100642.80
2018-07-24T16:06:12.602Z,100643.09
2018-07-24T16:11:07.610Z,100643.05
2018-07-24T16:16:02.479Z,100640.63
2018-07-24T16:20:57.231Z,100640.24
2018-07-24T16:25:52.022Z,100641.47
2018-07-24T16:30:46.916Z,100634.14
2018-07-24T16:35:41.701Z,100640.00
2018-07-24T16:40:36.566Z,100637.84
2018-07-24T16:45:31.779Z,100640.02
2018-07-24T16:50:26.777Z,100630.76
2018-07-24T16:55:21.889Z,100629.67
2018-07-24T17:00:17.116Z,100619.73
2018-07-24T17:05:11.916Z,100623.91
2018-07-24T17:10:07.048Z,100616.70
2018-07-24T17:15:01.712Z,100612.45
2018-07-24T17:19:56.426Z,100616.99
2018-07-24T17:24:51.176Z,100613.80
2018-07-24T17:29:45.668Z,100617.07
2018-07-24T17:34:40.453Z,100615.21
2018-07-24T17:39:35.208Z,100617.52
2018-07-24T17:44:29.953Z,100620.82
2018-07-24T17:49:24.692Z,100629.59
2018-07-24T17:54:19.475Z,100627.40
2018-07-24T17:59:14.204Z,100623.28
2018-07-24T18:04:08.934Z,100626.79
2018-07-24T18:09:04.396Z,100627.27
2018-07-24T18:13:59.150Z,100629.84
2018-07-24T18:18:53.862Z,100631.64
2018-07-24T18:23:48.606Z,100639.69
2018-07-24T18:28:43.343Z,100635.86
2018-07-24T18:33:38.834Z,100631.14
2018-07-24T18:38:33.597Z,100634.64
2018-07-24T18:43:28.490Z,100646.95
2018-07-24T18:48:23.513Z,100648.03
2018-07-24T18:53:18.440Z,100641.27
2018-07-24T18:58:13.107Z,100652.02
2018-07-24T19:03:08.972Z,100651.20
2018-07-24T19:08:03.892Z,100652.13
2018-07-24T19:12:58.394Z,100657.84
2018-07-24T19:17:53.324Z,100652.70
2018-07-24T19:22:48.464Z,100655.67
2018-07-24T19:27:43.266Z,100663.02
2018-07-24T19:32:37.998Z,100664.73
2018-07-24T19:37:32.701Z,100672.98
2018-07-24T19:42:28.026Z,100674.10
2018-07-24T19:47:23.134Z,100690.42
2018-07-24T19:52:18.085Z,100691.26
2018-07-24T19:57:12.322Z,100688.36
2018-07-24T20:02:07.565Z,100690.80
2018-07-24T20:07:02.309Z,100693.80
2018-07-24T20:11:57.065Z,100701.55
2018-07-24T20:16:51.573Z,100704.40
2018-07-24T20:21:46.276Z,100703.12
2018-07-24T20:26:40.792Z,100708.41
2018-07-24T20:31:35.430Z,100709.66
2018-07-24T20:36:30.226Z,100708.94
2018-07-24T20:41:24.826Z,100709.61
2018-07-24T20:46:31.766Z,100718.38
2018-07-24T20:51:27.038Z,100713.27
2018-07-24T20:56:21.596Z,100718.47
2018-07-24T21:01:16.230Z,100712.68
2018-07-24T21:06:11.185Z,100710.14
2018-07-24T21:11:07.676Z,100715.17
2018-07-24T21:16:02.804Z,100717.48
2018-07-24T21:20:57.805Z,100717.08
2018-07-24T21:25:53.967Z,100719.88
2018-07-24T21:30:50.741Z,100718.09
2018-07-24T21:35:46.236Z,100727.67
2018-07-24T21:40:41.049Z,100730.78
2018-07-24T21:45:37.004Z,100730.69
2018-07-24T21:50:31.788Z,100736.85
2018-07-24T21:55:27.253Z,100732.17
2018-07-24T22:00:22.365Z,100731.06
2018-07-24T22:05:19.036Z,100732.13
2018-07-24T22:10:22.003Z,100732.02
2018-07-24T22:15:23.381Z,100733.25
2018-07-24T22:20:18.747Z,100733.96
2018-07-24T22:25:14.704Z,100741.28
2018-07-24T22:30:09.868Z,100743.02
2018-07-24T22:35:04.905Z,100743.06
2018-07-24T22:40:01.295Z,100747.85
2018-07-24T22:44:56.573Z,100752.11
2018-07-24T22:49:51.044Z,100761.16
2018-07-24T22:54:45.738Z,100752.76
2018-07-24T22:59:40.314Z,100754.12
2018-07-24T23:04:35.358Z,100760.72
2018-07-24T23:09:30.997Z,100761.89
2018-07-24T23:14:25.866Z,100762.61
2018-07-24T23:19:20.525Z,100764.64
2018-07-24T23:24:15.068Z,100760.09
2018-07-24T23:29:09.534Z,100761.80
2018-07-24T23:34:04.480Z,100764.73
2018-07-24T23:39:00.120Z,100768.16
2018-07-24T23:44:00.666Z,100761.03
2018-07-24T23:48:55.973Z,100762.92
2018-07-24T23:53:50.542Z,100761.26
2018-07-24T23:58:45.178Z,100769.91
